Flight Track Log - Related Links

Times and Time Zones

All times are in EDT time to prevent confusion due to time zone crossing. See the AAY876 flight status page for this flight to view local times or setup timezone preferences in your user account.


Time Position Orientation Groundspeed Altitude Reporting Facility
EDT Latitude Longitude Course Direction KTS MPH feet Rate Location/Type
Sat 05:50:00 PM 28.0291 -82.7031 348° North  Level FlightAware Approximate
Sat 05:52:33 PM 27.9333 -82.7000 350° North 182 209 1,000  Level Tampa TRACON
Sat 05:54:00 PM 28.5161 -82.8124 348° North  Level FlightAware Approximate
Sat 05:54:17 PM 28.0244 -82.6903 North 199 229 4,000  Level Jacksonville Center
Sat 05:55:16 PM 28.0975 -82.7114 346° North 251 289 6,400 2,289 Climbing Jacksonville Center
Sat 05:57:00 PM 28.7532 -82.8606 350° North  Level FlightAware Approximate
Sat 05:58:00 PM 28.8569 -82.8814 350° North  Level FlightAware Approximate
Sat 06:01:19 PM 28.6613 -82.8952 343° North 389 448 20,100  Level FlightAware ADS-B
Sat 06:02:17 PM 28.7572 -82.9281 343° North 386 444 21,400 1,322 Climbing Jacksonville Center
Sat 06:03:17 PM 28.8636 -82.9683 342° North 391 450 22,700 1,400 Climbing Jacksonville Center
Sat 06:04:17 PM 28.9764 -83.0089 343° North 405 466 24,200 1,600 Climbing Jacksonville Center
Sat 06:05:17 PM 29.0931 -83.0517 342° North 416 479 25,900 1,600 Climbing Jacksonville Center
Sat 06:06:17 PM 29.2058 -83.0947 342° North 421 484 27,400 1,400 Climbing Jacksonville Center
Sat 06:07:17 PM 29.3183 -83.1356 342° North 421 484 28,700 1,500 Climbing Jacksonville Center
Sat 06:08:17 PM 29.4311 -83.1786 342° North 421 484 30,400 2,300 Climbing Jacksonville Center
Sat 06:09:17 PM 29.5311 -83.2125 344° North 421 484 33,300 1,750 Climbing Jacksonville Center
Sat 06:10:17 PM 29.6292 -83.2511 341° North 393 452 33,900 350 Climbing Jacksonville Center
Sat 06:11:17 PM 29.7231 -83.2847 343° North 376 433 34,000  Climbing Jacksonville Center
Sat 06:12:17 PM 29.8231 -83.3211 342° North 370 426 33,900 -50 Descending Jacksonville Center
Sat 06:13:17 PM 29.9211 -83.3575 342° North 370 426 33,900 16 Level Jacksonville Center
Sat 06:18:41 PM 30.4780 -83.5620 342° North 378 435 34,000 17 Climbing FlightAware ADS-B (KONZ)
Sat 06:19:18 PM 30.5390 -83.5848 342° North 378 435 34,000  Level FlightAware ADS-B (KONZ)
Sat 06:19:53 PM 30.5931 -83.6050 342° North 380 437 34,000  Level FlightAware ADS-B (KONZ)
Sat 06:20:29 PM 30.6471 -83.6254 342° North 382 440 34,000  Level FlightAware ADS-B (KONZ)
Sat 06:21:00 PM 30.7093 -83.6487 342° North 383 441 34,000  Level FlightAware ADS-B (KONZ)
Sat 06:22:05 PM 30.8201 -83.6904 342° North 384 442 34,000  Level FlightAware ADS-B (KONZ)
Sat 06:22:39 PM 30.8774 -83.7119 342° North 384 442 34,000  Level FlightAware ADS-B (KONZ)
Sat 06:23:13 PM 30.9353 -83.7338 342° North 383 441 34,000  Level FlightAware ADS-B (KONZ)
Sat 06:23:58 PM 31.0101 -83.7621 342° North 382 440 34,000  Level FlightAware ADS-B (KONZ)
Sat 06:24:32 PM 31.0675 -83.7838 342° North 382 440 34,000  Level FlightAware ADS-B (KONZ)
Sat 06:25:17 PM 31.1275 -83.8100 342° North 381 438 34,000  Level Jacksonville Center
Sat 06:27:15 PM 31.3375 -83.8906 342° North 380 437 34,000  Level Atlanta Center
Sat 06:28:15 PM 31.4419 -83.9294 342° North 380 437 34,000  Level Atlanta Center
Sat 06:29:15 PM 31.5419 -83.9658 343° North 380 437 34,000  Level Atlanta Center
Sat 06:30:15 PM 31.6506 -83.9925 348° North 385 443 34,000 150 Level Atlanta Center
Sat 06:31:15 PM 31.7592 -84.0119 351° North 390 449 34,300 900 Climbing Atlanta Center
Sat 06:32:15 PM 31.8656 -84.0364 349° North 390 449 35,800 1,200 Climbing Atlanta Center
Sat 06:33:15 PM 31.9678 -84.0608 349° North 390 449 36,700 750 Climbing Atlanta Center
Sat 06:34:15 PM 32.0700 -84.0831 350° North 379 436 37,300 650 Climbing Atlanta Center
Sat 06:35:15 PM 32.1725 -84.1050 350° North 373 429 38,000 350 Climbing Atlanta Center
Sat 06:36:15 PM 32.2767 -84.1272 350° North 373 429 38,000  Level Atlanta Center
Sat 06:37:15 PM 32.3644 -84.1469 349° North 367 422 38,000  Level Atlanta Center
Sat 06:38:15 PM 32.4644 -84.1692 349° North 362 417 38,000  Level Atlanta Center
Sat 06:39:15 PM 32.5647 -84.1942 348° North 362 417 38,000  Level Atlanta Center
Sat 06:40:15 PM 32.6628 -84.2139 350° North 362 417 38,000  Level Atlanta Center
Sat 06:41:15 PM 32.7650 -84.2389 348° North 362 417 38,000  Level Atlanta Center
Sat 06:42:15 PM 32.8714 -84.2639 349° North 356 410 38,000  Level Atlanta Center
Sat 06:43:15 PM 32.9694 -84.2914 347° North 356 410 38,000  Level Atlanta Center
Sat 06:44:15 PM 33.0675 -84.3114 350° North 356 410 38,000  Level Atlanta Center
Sat 06:45:15 PM 33.1656 -84.3342 349° North 356 410 38,000  Level Atlanta Center
Sat 06:50:47 PM 33.7865 -84.4731 348° North 360 414 38,000  Level FlightAware ADS-B
Sat 06:51:20 PM 33.8412 -84.4863 348° North 360 414 38,000  Level FlightAware ADS-B
Sat 06:51:50 PM 33.8909 -84.4984 349° North 360 414 38,000  Level FlightAware ADS-B
Sat 06:52:30 PM 33.9592 -84.5149 348° North 361 415 38,000  Level FlightAware ADS-B
Sat 06:53:10 PM 34.0255 -84.5310 348° North 361 415 38,000  Level FlightAware ADS-B
Sat 06:53:51 PM 34.0939 -84.5477 348° North 362 417 38,000  Level FlightAware ADS-B
Sat 06:54:30 PM 34.1604 -84.5639 348° North 362 417 38,000  Level FlightAware ADS-B
Sat 06:55:11 PM 34.2287 -84.5806 348° North 362 417 38,000  Level FlightAware ADS-B
Sat 06:55:50 PM 34.2946 -84.5967 348° North 362 417 38,000  Level FlightAware ADS-B
Sat 06:56:30 PM 34.3626 -84.6133 348° North 364 419 38,000  Level FlightAware ADS-B
Sat 06:57:11 PM 34.4318 -84.6303 348° North 366 421 38,000  Level FlightAware ADS-B
Sat 06:57:51 PM 34.4989 -84.6467 348° North 366 421 38,000  Level FlightAware ADS-B
Sat 06:58:31 PM 34.5673 -84.6635 348° North 366 421 38,000  Level FlightAware ADS-B
Sat 06:59:11 PM 34.6348 -84.6802 348° North 365 420 38,000  Level FlightAware ADS-B
Sat 06:59:52 PM 34.7034 -84.6971 348° North 364 419 38,000  Level FlightAware ADS-B
Sat 07:00:31 PM 34.7702 -84.7136 348° North 363 418 38,000  Level FlightAware ADS-B
Sat 07:01:11 PM 34.8382 -84.7305 348° North 364 419 38,000  Level FlightAware ADS-B
Sat 07:01:51 PM 34.9056 -84.7473 348° North 366 421 38,000  Level FlightAware ADS-B
Sat 07:02:32 PM 34.9741 -84.7643 349° North 375 432 38,000  Level FlightAware ADS-B
Sat 07:03:11 PM 35.0418 -84.7813 349° North 375 432 38,000  Level FlightAware ADS-B
Sat 07:03:51 PM 35.1083 -84.7979 349° North 375 432 38,000  Level FlightAware ADS-B
Sat 07:04:28 PM 35.1723 -84.8139 348° North 366 421 38,000  Level FlightAware ADS-B
Sat 07:05:10 PM 35.1899 -84.8183 348° North 374 430 38,000  Level FlightAware ADS-B (KMDQ)
Sat 07:05:48 PM 35.2493 -84.8333 348° North 372 428 38,000  Level FlightAware ADS-B (KMDQ)
Sat 07:06:28 PM 35.3227 -84.8518 348° North 370 426 38,000  Level FlightAware ADS-B (KMDQ)
Sat 07:07:06 PM 35.3851 -84.8676 348° North 369 425 38,000  Level FlightAware ADS-B (KMDQ)
Sat 07:07:41 PM 35.3978 -84.8708 348° North 369 425 38,000  Level FlightAware ADS-B (KMDQ)
Sat 07:08:30 PM 35.5266 -84.9035 348° North 372 428 38,000  Level FlightAware ADS-B (KMDQ)
Sat 07:09:30 PM 35.6011 -84.9224 348° North 376 433 38,000  Level FlightAware ADS-B (KMDQ)
Sat 07:10:10 PM 35.6968 -84.9466 348° North 377 434 38,000  Level FlightAware ADS-B (KMDQ)
Sat 07:11:10 PM 35.7990 -84.9725 349° North 376 433 38,000  Level FlightAware ADS-B (KMDQ)
Sat 07:11:49 PM 35.8503 -84.9854 348° North 376 433 38,000  Level FlightAware ADS-B (KMDQ)
Sat 07:12:24 PM 35.9068 -84.9999 348° North 375 432 38,000  Level FlightAware ADS-B (KMDQ)
Sat 07:13:10 PM 36.0036 -85.0248 348° North 374 430 38,000  Level FlightAware ADS-B (KMDQ)
Sat 07:14:28 PM 36.1333 -85.0580 348° North 374 430 38,000  Level FlightAware ADS-B (KMDQ)
Sat 07:15:09 PM 36.1988 -85.0747 348° North 374 430 38,000  Level FlightAware ADS-B (KMDQ)
Sat 07:15:45 PM 36.2650 -85.0917 348° North 373 429 38,000  Level FlightAware ADS-B (KMDQ)
Sat 07:16:29 PM 36.3227 -85.1066 348° North 373 429 38,000  Level FlightAware ADS-B (KMDQ)
Sat 07:17:09 PM 36.4084 -85.1288 348° North 373 429 38,000  Level FlightAware ADS-B (KMDQ)
Sat 07:18:10 PM 36.5117 -85.1554 348° North 372 428 38,000  Level FlightAware ADS-B (KMDQ)
Sat 07:20:24 PM 36.5187 -85.1572 348° North 371 427 38,000  Level FlightAware ADS-B (KMDQ)
Sat 07:22:05 PM 36.8975 -85.2561 348° North 372 428 38,000  Level FlightAware ADS-B
Sat 07:24:06 PM 37.1040 -85.3102 348° North 377 434 38,000  Level FlightAware ADS-B
Sat 07:24:40 PM 37.1611 -85.3253 348° North 378 435 38,000  Level FlightAware ADS-B
Sat 07:25:11 PM 37.2132 -85.3388 348° North 378 435 38,000  Level FlightAware ADS-B
Sat 07:25:56 PM 37.2869 -85.3585 348° North 377 434 38,000  Level FlightAware ADS-B
Sat 07:26:26 PM 37.3429 -85.3733 348° North 378 435 38,000  Level FlightAware ADS-B
Sat 07:26:56 PM 37.3899 -85.3857 348° North 377 434 38,000  Level FlightAware ADS-B
Sat 07:27:26 PM 37.4445 -85.4003 348° North 377 434 38,000  Level FlightAware ADS-B
Sat 07:27:56 PM 37.4947 -85.4136 348° North 377 434 38,000  Level FlightAware ADS-B
Sat 07:28:26 PM 37.5468 -85.4277 348° North 376 433 38,000  Level FlightAware ADS-B
Sat 07:29:10 PM 37.6216 -85.4478 348° North 374 430 38,000  Level FlightAware ADS-B
Sat 07:29:40 PM 37.6730 -85.4617 348° North 373 429 38,000  Level FlightAware ADS-B
Sat 07:30:26 PM 37.7263 -85.4758 348° North 373 429 38,000 -79 Level FlightAware ADS-B
Sat 07:30:56 PM 37.7977 -85.4948 348° North 375 432 37,900  Descending FlightAware ADS-B
Sat 07:31:26 PM 37.8514 -85.5092 348° North 377 434 38,000 100 Climbing FlightAware ADS-B
Sat 07:31:56 PM 37.9039 -85.5234 348° North 382 440 38,000  Level FlightAware ADS-B
Sat 07:32:26 PM 37.9559 -85.5376 348° North 385 443 38,000  Level FlightAware ADS-B
Sat 07:32:56 PM 38.0082 -85.5517 348° North 388 447 38,000  Level FlightAware ADS-B
Sat 07:33:26 PM 38.0609 -85.5658 348° North 391 450 38,000  Level FlightAware ADS-B
Sat 07:34:11 PM 38.1307 -85.5933 337° Northwest 371 427 38,000  Level FlightAware ADS-B
Sat 07:34:41 PM 38.1830 -85.6240 335° Northwest 369 425 38,000  Level FlightAware ADS-B
Sat 07:35:26 PM 38.2536 -85.6655 335° Northwest 371 427 38,000  Level FlightAware ADS-B
Sat 07:35:59 PM 38.2933 -85.6888 335° Northwest 372 428 38,000  Level FlightAware ADS-B
Sat 07:37:10 PM 38.4177 -85.7621 335° Northwest 374 430 38,000  Level FlightAware ADS-B
Sat 07:38:08 PM 38.4378 -85.7740 335° Northwest 375 432 38,000  Level FlightAware ADS-B (KCVG)
Sat 07:39:08 PM 38.5651 -85.8494 335° Northwest 375 432 38,000  Level FlightAware ADS-B (KCVG)
Sat 07:39:41 PM 38.6500 -85.9000 335° Northwest 376 433 38,000  Level FlightAware ADS-B (KCVG)
Sat 07:40:18 PM 38.7137 -85.9378 335° Northwest 377 434 38,000  Level FlightAware ADS-B
Sat 07:40:58 PM 38.7775 -85.9759 335° Northwest 379 436 38,000  Level FlightAware ADS-B (KCVG)
Sat 07:42:15 PM 38.7475 -85.9579 335° Northwest 380 437 38,000  Level FlightAware ADS-B
Sat 07:44:24 PM 39.1065 -86.1731 335° Northwest 382 440 38,000  Level FlightAware ADS-B
Sat 07:45:24 PM 39.1801 -86.2177 335° Northwest 381 438 38,000  Level FlightAware ADS-B
Sat 07:46:33 PM 39.3129 -86.2986 335° Northwest 384 442 38,000  Level FlightAware ADS-B (HDG / ZBHD)
Sat 07:47:13 PM 39.3238 -86.3052 335° Northwest 385 443 38,000  Level FlightAware ADS-B (HDG / ZBHD)
Sat 07:47:56 PM 39.4456 -86.3793 335° Northwest 385 443 38,000  Level FlightAware ADS-B
Sat 07:48:57 PM 39.3238 -86.3052 335° Northwest 383 441 38,000  Level FlightAware ADS-B (HDG / ZBHD)
Sat 07:51:06 PM 39.6283 -86.4909 335° Northwest 384 442 38,000  Level FlightAware ADS-B (HDG / ZBHD)
Sat 07:52:42 PM 39.7828 -86.5862 335° Northwest 387 445 38,000  Level FlightAware ADS-B
Sat 07:53:50 PM 40.0146 -86.7295 334° Northwest 387 445 38,000  Level FlightAware ADS-B (KBHM)
Sat 07:54:51 PM 40.1156 -86.7925 334° Northwest 386 444 38,000  Level FlightAware ADS-B (KBHM)
Sat 07:55:22 PM 40.1660 -86.8240 334° Northwest 386 444 38,000  Level FlightAware ADS-B (HDG / ZBHD)
Sat 07:56:00 PM 40.2259 -86.8615 334° Northwest 386 444 38,000  Level FlightAware ADS-B (KBHM)
Sat 07:56:16 PM 40.2390 -86.8705 320° Northwest 372 428 38,000  Level FlightAware ADS-B (KBHM)
Sat 07:57:23 PM 40.3209 -86.9907 309° West 362 417 38,000  Level FlightAware ADS-B (KBHM)
Sat 07:57:54 PM 40.3559 -87.0465 309° West 360 414 38,000  Level FlightAware ADS-B (KBHM)
Sat 07:58:25 PM 40.3861 -87.0949 309° West 358 412 38,000  Level FlightAware ADS-B (KBHM)
Sat 07:59:05 PM 40.4296 -87.1655 309° West 357 411 38,000  Level FlightAware ADS-B (KBHM)
Sat 07:59:35 PM 40.4607 -87.2159 309° West 357 411 38,000  Level FlightAware ADS-B (KBHM)
Sat 08:00:09 PM 40.4962 -87.2735 309° West 358 412 38,000  Level FlightAware ADS-B (KBHM)
Sat 08:00:41 PM 40.5292 -87.3272 309° West 359 413 38,000  Level FlightAware ADS-B (KBHM)
Sat 08:01:45 PM 40.5965 -87.4376 309° West 361 415 38,000  Level FlightAware ADS-B (KBHM)
Sat 08:02:28 PM 40.6053 -87.4519 309° West 361 415 38,000  Level FlightAware ADS-B (HDG / ZBHD)
Sat 08:03:06 PM 40.6815 -87.5761 309° West 360 414 38,000  Level FlightAware ADS-B (KBHM)
Sat 08:03:21 PM 40.6764 -87.5676 309° West 360 414 38,000  Level FlightAware ADS-B (HDG / ZBHD)
Sat 08:03:59 PM 40.7360 -87.6658 308° West 359 413 38,000  Level FlightAware ADS-B (HDG / ZBHD)
Sat 08:04:29 PM 40.7674 -87.7178 308° West 359 413 38,000  Level FlightAware ADS-B (KBHM)
Sat 08:04:49 PM 40.7871 -87.7503 309° West 360 414 38,000  Level FlightAware ADS-B (KBHM)
Sat 08:05:19 PM 40.8191 -87.8034 309° West 360 414 38,000 -1,174 Level FlightAware ADS-B (KBHM)
Sat 08:05:35 PM 40.8206 -87.8059 308° West 364 419 37,100 -2,280 Descending FlightAware ADS-B
Sat 08:06:09 PM 40.8717 -87.8906 309° West 363 418 36,100 -1,846 Descending FlightAware ADS-B (KBHM)
Sat 08:06:40 PM 40.9039 -87.9444 308° West 362 417 35,100 -1,440 Descending FlightAware ADS-B (KBHM)
Sat 08:07:24 PM 40.9477 -88.0177 308° West 385 443 34,300 -1,054 Descending FlightAware ADS-B (KBHM)
Sat 08:07:54 PM 40.9847 -88.0793 309° West 391 450 33,800 -1,015 Descending FlightAware ADS-B (KBHM)
Sat 08:08:29 PM 41.0229 -88.1425 308° West 393 452 33,200 -985 Descending FlightAware ADS-B (KBHM)
Sat 08:09:01 PM 41.0414 -88.1735 308° West 392 451 32,700 -938 Descending FlightAware ADS-B (HDG / ZBHD)
Sat 08:09:33 PM 41.0952 -88.2639 308° West 385 443 32,200 -938 Descending FlightAware ADS-B (HDG / ZBHD)
Sat 08:10:05 PM 41.1286 -88.3202 308° West 383 441 31,700 -1,714 Descending FlightAware ADS-B
Sat 08:10:43 PM 41.1700 -88.3902 308° West 377 434 30,200 -2,382 Descending FlightAware ADS-B (KBHM)
Sat 08:11:13 PM 41.2021 -88.4445 308° West 368 423 29,000 -2,400 Descending FlightAware ADS-B (KBHM)
Sat 08:11:43 PM 41.2347 -88.4994 308° West 361 415 27,800 -2,625 Descending FlightAware ADS-B (KBHM)
Sat 08:12:33 PM 41.2863 -88.5873 308° West 361 415 25,500 -2,634 Descending FlightAware ADS-B (KBHM)
Sat 08:13:05 PM 41.3185 -88.6422 308° West 352 405 24,200 -2,507 Descending FlightAware ADS-B
Sat 08:13:40 PM 41.3527 -88.7003 308° West 348 400 22,700 -2,597 Descending FlightAware ADS-B (KBHM)
Sat 08:14:12 PM 41.3857 -88.7566 308° West 348 400 21,300 -3,045 Descending FlightAware ADS-B
Sat 08:14:47 PM 41.4210 -88.8169 308° West 364 419 19,300 -2,182 Descending FlightAware ADS-B (KBHM)
Sat 08:15:29 PM 41.4630 -88.8886 308° West 332 382 18,500 -1,829 Descending FlightAware ADS-B (KBHM)
Sat 08:16:09 PM 41.5012 -88.9545 308° West 339 390 16,800 -2,118 Descending FlightAware ADS-B (KBHM)
Sat 08:16:54 PM 41.5439 -89.0281 308° West 327 376 15,500 -1,780 Descending FlightAware ADS-B
Sat 08:17:40 PM 41.5845 -89.0982 308° West 319 367 14,100 -1,974 Descending FlightAware ADS-B (KBHM)
Sat 08:18:10 PM 41.6125 -89.1465 308° West 319 367 13,000 -1,040 Descending FlightAware ADS-B (KBHM)
Sat 08:18:55 PM 41.6151 -89.1511 308° West 315 362 12,800 -261 Descending FlightAware ADS-B
Sat 08:19:42 PM 41.6985 -89.2822 308° West 315 362 12,600 -360 Descending FlightAware ADS-B (KBHM)
Sat 08:19:45 PM 41.7025 -89.2845 346° North 316 364 12,500 -1,862 Descending FlightAware ADS-B (KBHM)
Sat 08:20:11 PM 41.6871 -89.2727 North 314 361 11,700 -1,931 Descending FlightAware ADS-B
Sat 08:21:12 PM 41.7025 -89.2845 24° Northeast 279 321 9,700 -1,875 Descending FlightAware ADS-B (KBHM)
Sat 08:22:35 PM 41.9028 -89.1833 24° Northeast 276 318 7,200 -1,750 Descending Chicago Center
Sat 08:23:36 PM 41.9725 -89.1433 23° Northeast 271 312 5,500 -1,756 Descending Chicago Center
Sat 08:24:38 PM 42.0394 -89.1022 25° Northeast 270 311 3,600 -1,415 Descending Chicago Center
Sat 08:25:39 PM 42.1219 -89.0553 23° Northeast 269 310 2,600 -639 Descending Chicago Center
Sat 08:26:40 PM 42.1756 -89.0244 23° Northeast 264 304 2,300 -295 Descending Chicago Center

Login

Don't have an account? Register now (free) for customized features, flight alerts, and more!